Terminal Aerodrome Forecast
Issued by NWS Milwaukee/Sullivan, WI

Home | Current Version | Previous Version | Text Only | Print | Product List | Glossary On
Versions: 1 2 3 4 5 6 7 8 9 10 11 12 13 14 15 16 17 18 19 20 21 22 23 24 25 26 27 28 29 30 31 32 33 34 35 36 37 38 39 40 41 42 43 44 45
000
FTUS43 KMKX 032320
TAFMKE
TAF
KMKE 032320Z 0400/0506 14007KT P6SM BKN250
     FM040800 17005KT P6SM BKN050
     FM041400 20009KT P6SM BKN040
     FM041800 21011KT P6SM BKN070
     FM042300 19005KT P6SM SCT150=

USA.gov is the U.S. government's official web portal to all federal, state and local government web resources and services.